Belmore, OH (45815)

2:28 PM EST on February 09, 2016 (GMT -0500)
APRSWXNET | | Change Station
CLOSE
Current Station
Personal Weather Station
Location: Leipsic, OH
Elevation: 784 ft
Nearby Weather Stations

Elev 784 ft 41.10 °N, 83.99 °W | Updated 30 minutes ago

Overcast
Overcast
29 °F
Feels Like 20 °F
N
10
Wind Variable Wind from WNW
Gusts 22.0 mph

Today
High -- | Low -- °F
--% Chance of Precip.
Yesterday
High -- | Low -- °F
Precip. -- in
Pressure 29.63 in
Visibility 10.0 miles
Clouds Overcast 1700 ft
Windchill 20 °F
Dew Point 24 °F
Humidity 80%
Rainfall in
Snow Depth Not available.
7:38 AM 6:01 PM
New Moon, 2% visible
METAR KFDY 091853Z AUTO 28014KT 10SM OVC017 M01/M04 A2962 RMK AO2 SLP034 T10061044 TSNO
Pressure 29.63 in
Visibility 10.0 miles
Clouds Overcast 1700 ft
Windchill 20 °F
Dew Point 24 °F
Humidity 80%
Rainfall in
Snow Depth Not available.
7:38 AM 6:01 PM
New Moon, 2% visible
METAR KFDY 091853Z AUTO 28014KT 10SM OVC017 M01/M04 A2962 RMK AO2 SLP034 T10061044 TSNO

10-Day Weather Forecast

Almanac

Astronomy

Feb. 09, 2016 Rise Set
Actual Time
Civil Twilight
Nautical Twilight
Astronomical Twilight
Moon
Length of Visible Light
Length of Day
Tomorrow will be .
, % of the Moon is Illuminated

Today's Extremes

State Highs State Lows

Community

WunderPhotos

Upload Photos

1,891,668 photos uploaded!

WunderBlog® & News

Nearby

Air Quality

  Air Quality AQ Index Pollutant
Not available.

Snow Depth

Station Depth Elevation

Earthquake Activity

City Distance Mag. Time & Date
Minimum magnitude displayed is 2.5.

Coastal Water Temperatures

Place Temperature

Stations

Nearby Weather Stations

Station Location Temp. Windchill Dew Point Humidity Wind Precip. Elev Updated Type
                   

Watches & Warnings

There are currently no watches in effect.